Vienna, New York
Current Conditions -  °F | °C
As of 3:53 AM on Wednesday 28 Jan 2015 (Local Time) from KRME Reporting Station
Clear Clear  
Wind Chill: -7°   Ceiling: Unl
Heat Index:   Visibility: 10mi
Dew Point: -5°   Wind: 6mph
Humidity: 66%   Direction: 320°NW
Pressure: 30.05"   Gusts: NA
Location:  43.2465°N, 75.6869°W
Report Text: KRME 280853Z AUTO 32005KT 10SM CLR M16/M21 A3005 RMK AO2 SLP184 T11561206 53015
Loading
Personal Weather Stations






























Interactive Weather Map New forecast layout! Learn more

10-Day Weather Forecast

Advertisements
Track Severe Weather on mobile